createdAt,value
2019-03-20T00:02:29.925Z,-0.12
2019-03-20T00:05:02.430Z,-0.13
2019-03-20T00:07:35.141Z,-0.14
2019-03-20T00:10:10.621Z,-0.18
2019-03-20T00:12:43.021Z,-0.19
2019-03-20T00:15:15.828Z,-0.23
2019-03-20T00:17:48.478Z,-0.26
2019-03-20T00:24:53.277Z,-0.37
2019-03-20T00:28:22.372Z,-0.44
2019-03-20T00:30:59.251Z,-0.50
2019-03-20T00:33:32.238Z,-0.55
2019-03-20T00:36:06.618Z,-0.56
2019-03-20T00:38:39.776Z,-0.55
2019-03-20T00:41:27.128Z,-0.74
2019-03-20T00:44:00.162Z,-0.51
2019-03-20T00:46:39.307Z,-0.52
2019-03-20T00:49:19.818Z,-0.50
2019-03-20T00:52:04.398Z,-0.54
2019-03-20T00:54:42.457Z,-0.52
2019-03-20T00:57:28.887Z,-0.44
2019-03-20T01:00:01.992Z,-0.43
2019-03-20T01:05:41.398Z,-0.51
2019-03-20T01:08:18.837Z,-0.49
2019-03-20T01:11:12.621Z,-0.48
2019-03-20T01:14:20.606Z,-0.54
2019-03-20T01:17:18.867Z,-0.58
2019-03-20T01:19:52.938Z,-0.69
2019-03-20T01:22:31.890Z,-0.74
2019-03-20T01:25:34.996Z,-0.74
2019-03-20T01:28:21.908Z,-0.77
2019-03-20T01:30:54.986Z,-0.78
2019-03-20T01:33:29.428Z,-0.78
2019-03-20T01:36:02.242Z,-0.80
2019-03-20T01:38:38.356Z,-0.81
2019-03-20T01:41:11.309Z,-0.81
2019-03-20T01:43:45.997Z,-0.80
2019-03-20T01:46:35.588Z,-0.79
2019-03-20T01:49:20.777Z,-0.76
2019-03-20T01:55:38.696Z,-0.74
2019-03-20T01:59:54.497Z,-0.75
2019-03-20T02:06:51.369Z,-0.77
2019-03-20T02:11:48.850Z,-0.82
2019-03-20T02:13:25.452Z,-1.03
2019-03-20T02:16:21.070Z,-0.89
2019-03-20T02:18:54.087Z,-0.89
2019-03-20T02:21:37.696Z,-0.88
2019-03-20T02:24:46.481Z,-0.87
2019-03-20T02:27:48.266Z,-0.86
2019-03-20T02:30:26.874Z,-0.86
2019-03-20T02:33:03.226Z,-0.89
2019-03-20T02:35:51.542Z,-0.86
2019-03-20T02:38:45.188Z,-0.85
2019-03-20T02:41:41.412Z,-0.83
2019-03-20T02:44:16.490Z,-0.81
2019-03-20T02:47:08.634Z,-0.79
2019-03-20T02:50:21.417Z,-0.78
2019-03-20T02:53:08.633Z,-0.74
2019-03-20T03:16:31.877Z,-0.77
2019-03-20T03:20:26.168Z,-0.91
2019-03-20T03:23:29.511Z,-1.01
2019-03-20T03:26:04.287Z,-1.01
2019-03-20T03:28:41.358Z,-0.93
2019-03-20T03:31:14.211Z,-0.84
2019-03-20T03:34:36.578Z,-0.80
2019-03-20T03:37:59.561Z,-0.78
2019-03-20T03:40:43.558Z,-0.76
2019-03-20T03:43:19.329Z,-0.77
2019-03-20T03:45:56.079Z,-0.80
2019-03-20T03:48:36.318Z,-0.86
2019-03-20T03:51:10.532Z,-0.98
2019-03-20T03:53:49.339Z,-1.04
2019-03-20T03:56:23.909Z,-1.09
2019-03-20T03:58:56.759Z,-1.10
2019-03-20T04:01:30.772Z,-1.12
2019-03-20T04:04:05.071Z,-1.10
2019-03-20T04:06:40.758Z,-1.11
2019-03-20T04:10:10.678Z,-1.14
2019-03-20T04:14:01.109Z,-1.12
2019-03-20T04:21:23.709Z,-1.09
2019-03-20T04:23:56.890Z,-1.07
2019-03-20T04:26:59.238Z,-1.03
2019-03-20T04:29:37.844Z,-1.00
2019-03-20T04:33:12.357Z,-0.95
2019-03-20T04:35:46.529Z,-0.90
2019-03-20T04:38:19.329Z,-0.87
2019-03-20T04:40:53.868Z,-0.86
2019-03-20T04:44:12.610Z,-0.86
2019-03-20T04:47:19.676Z,-0.88
2019-03-20T04:50:26.376Z,-0.85
2019-03-20T04:53:13.418Z,-0.99
2019-03-20T04:55:46.282Z,-0.86
2019-03-20T04:58:19.620Z,-0.88
2019-03-20T05:00:52.177Z,-0.88
2019-03-20T05:03:25.414Z,-0.83
2019-03-20T05:05:58.009Z,-0.83
2019-03-20T05:08:30.578Z,-0.83
2019-03-20T05:11:03.168Z,-0.83
2019-03-20T05:13:36.341Z,-0.81
2019-03-20T05:16:09.049Z,-0.80
2019-03-20T05:18:43.248Z,-0.75
2019-03-20T05:21:20.708Z,-0.71
2019-03-20T05:23:55.557Z,-0.69
2019-03-20T05:26:29.700Z,-0.66
2019-03-20T05:29:02.508Z,-0.65
2019-03-20T05:31:35.228Z,-0.60
2019-03-20T05:34:08.030Z,-0.54
2019-03-20T05:36:41.299Z,-0.50
2019-03-20T05:39:15.767Z,-0.42
2019-03-20T05:41:48.219Z,-0.36
2019-03-20T05:44:20.998Z,-0.26
2019-03-20T05:46:54.048Z,-0.20
2019-03-20T05:49:28.646Z,-0.10
2019-03-20T05:52:01.368Z,-0.03
2019-03-20T05:54:33.919Z,0.08
2019-03-20T05:57:06.540Z,0.20
2019-03-20T05:59:51.651Z,0.32
2019-03-20T06:05:13.027Z,0.44
2019-03-20T06:08:03.528Z,0.58
2019-03-20T06:09:40.133Z,0.76
2019-03-20T06:13:00.886Z,0.93
2019-03-20T06:27:34.598Z,1.68
2019-03-20T06:30:14.689Z,1.50
2019-03-20T06:47:20.377Z,2.63
2019-03-20T06:50:16.115Z,2.72
2019-03-20T06:52:54.398Z,3.14
2019-03-20T06:55:45.252Z,3.31
2019-03-20T06:58:31.120Z,3.60
2019-03-20T14:09:58.937Z,13.20
2019-03-20T14:12:47.179Z,12.81
2019-03-20T14:15:40.108Z,12.16
2019-03-20T14:34:28.400Z,11.04
2019-03-20T14:45:28.298Z,12.14
2019-03-20T14:51:53.328Z,12.15
2019-03-20T14:57:27.183Z,11.42
2019-03-20T15:03:44.328Z,11.31
2019-03-20T15:12:15.589Z,11.08
2019-03-20T15:20:16.876Z,11.16
2019-03-20T15:31:45.036Z,10.98
2019-03-20T15:55:33.657Z,9.73
2019-03-20T16:02:02.408Z,9.69
2019-03-20T16:05:09.817Z,9.64
2019-03-20T16:08:05.989Z,9.59
2019-03-20T16:10:51.621Z,9.54
2019-03-20T16:13:38.404Z,9.37
2019-03-20T16:24:15.098Z,8.91
2019-03-20T16:27:08.701Z,8.76
2019-03-20T16:29:43.889Z,8.60
2019-03-20T16:32:24.740Z,8.51
2019-03-20T16:35:01.949Z,8.38
2019-03-20T16:37:35.978Z,8.27
2019-03-20T16:40:28.005Z,8.15
2019-03-20T16:43:19.915Z,8.03
2019-03-20T16:46:23.806Z,7.89
2019-03-20T16:49:05.321Z,7.74
2019-03-20T16:51:37.918Z,7.62
2019-03-20T16:54:10.629Z,7.48
2019-03-20T16:57:14.728Z,7.36
2019-03-20T16:59:58.188Z,7.22
2019-03-20T17:06:43.628Z,6.90
2019-03-20T17:13:26.376Z,6.65
2019-03-20T17:16:01.498Z,6.54
2019-03-20T17:18:35.867Z,6.47
2019-03-20T17:21:10.028Z,6.43
2019-03-20T17:23:42.477Z,6.33
2019-03-20T17:26:15.077Z,6.09
2019-03-20T17:28:47.488Z,5.82
2019-03-20T17:31:18.906Z,5.64
2019-03-20T17:33:51.238Z,5.44
2019-03-20T17:36:24.200Z,5.27
2019-03-20T17:38:58.479Z,5.16
2019-03-20T17:41:36.794Z,5.07
2019-03-20T17:44:07.959Z,5.01
2019-03-20T17:46:42.008Z,4.98
2019-03-20T17:49:14.578Z,4.95
2019-03-20T17:51:47.218Z,4.93
2019-03-20T17:54:19.585Z,4.91
2019-03-20T17:56:52.087Z,4.82
2019-03-20T17:59:24.538Z,4.68
2019-03-20T18:01:57.018Z,4.61
2019-03-20T18:04:30.056Z,4.59
2019-03-20T18:07:03.779Z,4.51
2019-03-20T18:09:36.098Z,4.46
2019-03-20T18:12:08.547Z,4.50
2019-03-20T18:14:41.099Z,4.49
2019-03-20T18:17:14.108Z,4.49
2019-03-20T18:19:55.040Z,4.42
2019-03-20T18:23:34.190Z,4.35
2019-03-20T18:26:45.390Z,4.27
2019-03-20T18:29:20.656Z,4.19
2019-03-20T18:31:53.868Z,4.12
2019-03-20T18:34:45.476Z,4.07
2019-03-20T18:38:00.220Z,4.05
2019-03-20T18:40:35.439Z,3.97
2019-03-20T18:43:10.776Z,3.90
2019-03-20T18:45:52.313Z,3.82
2019-03-20T18:48:27.158Z,3.73
2019-03-20T18:51:04.870Z,3.69
2019-03-20T18:53:41.608Z,3.65
2019-03-20T18:56:14.135Z,3.59
2019-03-20T18:58:46.658Z,3.59
2019-03-20T19:01:19.398Z,3.63
2019-03-20T19:03:51.818Z,3.54
2019-03-20T19:06:26.919Z,3.48
2019-03-20T19:09:00.350Z,3.47
2019-03-20T19:11:34.330Z,3.47
2019-03-20T19:14:07.238Z,3.48
2019-03-20T19:16:44.558Z,3.48
2019-03-20T19:19:17.278Z,3.45
2019-03-20T19:21:49.714Z,3.36
2019-03-20T19:24:22.302Z,3.35
2019-03-20T19:26:55.112Z,3.46
2019-03-20T19:29:27.788Z,3.63
2019-03-20T19:32:00.379Z,3.69
2019-03-20T19:34:33.378Z,3.62
2019-03-20T19:37:15.789Z,3.56
2019-03-20T19:39:49.698Z,3.51
2019-03-20T19:42:22.211Z,3.50
2019-03-20T19:44:56.508Z,3.59
2019-03-20T19:47:31.291Z,3.61
2019-03-20T19:50:12.008Z,3.63
2019-03-20T19:52:54.078Z,3.60
2019-03-20T19:56:17.617Z,3.53
2019-03-20T19:58:56.229Z,3.42
2019-03-20T20:01:28.687Z,3.30
2019-03-20T20:04:01.188Z,3.23
2019-03-20T20:06:33.649Z,3.14
2019-03-20T20:09:09.419Z,3.03
2019-03-20T20:11:43.069Z,3.01
2019-03-20T20:14:15.898Z,2.97
2019-03-20T20:16:48.508Z,2.97
2019-03-20T20:19:21.172Z,2.93
2019-03-20T20:21:54.808Z,2.97
2019-03-20T20:24:27.178Z,3.05
2019-03-20T20:27:00.258Z,3.02
2019-03-20T20:29:33.012Z,3.00
2019-03-20T20:32:06.461Z,3.01
2019-03-20T20:34:38.888Z,3.04
2019-03-20T20:37:11.609Z,2.98
2019-03-20T20:39:44.316Z,2.90
2019-03-20T20:42:16.798Z,3.02
2019-03-20T20:44:49.417Z,3.18
2019-03-20T20:47:21.968Z,3.34
2019-03-20T20:49:54.718Z,3.45
2019-03-20T20:52:27.489Z,3.51
2019-03-20T20:55:00.326Z,3.60
2019-03-20T20:57:32.942Z,3.65
2019-03-20T21:00:07.174Z,3.71
2019-03-20T21:02:39.858Z,3.77
2019-03-20T21:05:12.603Z,3.79
2019-03-20T21:07:44.969Z,3.80
2019-03-20T21:10:17.728Z,3.80
2019-03-20T21:12:56.374Z,3.73
2019-03-20T21:15:38.677Z,3.60
2019-03-20T21:18:57.947Z,3.47
2019-03-20T21:21:44.569Z,3.40
2019-03-20T21:24:27.898Z,3.20
2019-03-20T21:27:44.388Z,3.13
2019-03-20T21:30:34.749Z,3.05
2019-03-20T21:33:08.978Z,2.97
2019-03-20T21:36:20.938Z,2.98
2019-03-20T21:38:54.211Z,2.97
2019-03-20T21:42:29.518Z,2.96
2019-03-20T21:45:46.598Z,2.95
2019-03-20T21:48:19.577Z,2.95
2019-03-20T21:51:37.378Z,2.95
2019-03-20T21:55:15.888Z,2.91
2019-03-20T21:57:56.096Z,2.89
2019-03-20T22:01:37.656Z,2.82
2019-03-20T22:04:14.031Z,2.79
2019-03-20T22:07:14.599Z,2.83
2019-03-20T22:10:44.086Z,2.85
2019-03-20T22:17:31.568Z,2.82
2019-03-20T22:20:43.971Z,2.86
2019-03-20T22:23:59.619Z,2.88
2019-03-20T22:27:11.636Z,2.87
2019-03-20T22:29:51.557Z,2.83
2019-03-20T22:41:06.258Z,3.02
2019-03-20T22:44:17.040Z,3.08
2019-03-20T22:47:40.698Z,3.13
2019-03-20T22:50:40.851Z,3.16
2019-03-20T22:53:56.050Z,3.25
2019-03-20T22:57:26.728Z,3.31
2019-03-20T22:59:59.798Z,3.38
2019-03-20T23:02:47.878Z,3.53
2019-03-20T23:05:21.397Z,3.59
2019-03-20T23:07:55.948Z,3.69
2019-03-20T23:10:28.979Z,3.74
2019-03-20T23:13:01.950Z,3.87
2019-03-20T23:15:34.759Z,3.97
2019-03-20T23:18:07.788Z,4.10
2019-03-20T23:20:40.795Z,4.17
2019-03-20T23:23:13.990Z,4.28
2019-03-20T23:25:46.997Z,4.34
2019-03-20T23:28:20.238Z,4.38
2019-03-20T23:30:53.307Z,4.45
2019-03-20T23:33:26.179Z,4.51
2019-03-20T23:35:59.318Z,4.56
2019-03-20T23:38:32.498Z,4.58
2019-03-20T23:41:24.596Z,4.60
2019-03-20T23:43:57.894Z,4.61
2019-03-20T23:46:30.848Z,4.63
2019-03-20T23:49:07.568Z,4.65
2019-03-20T23:51:41.307Z,4.68
2019-03-20T23:54:16.133Z,4.68
2019-03-20T23:56:49.269Z,4.71
2019-03-20T23:59:22.259Z,4.73
